sensor_id;sensor_type;location;lat;lon;timestamp;temperature;humidity
55648;DHT22;45266;48.756;9.246;2022-09-17T00:00:53;9.70;99.90
55648;DHT22;45266;48.756;9.246;2022-09-17T00:01:55;9.70;99.90
55648;DHT22;45266;48.756;9.246;2022-09-17T00:02:57;9.70;99.90
55648;DHT22;45266;48.756;9.246;2022-09-17T00:04:00;9.70;99.90
55648;DHT22;45266;48.756;9.246;2022-09-17T00:05:06;9.70;99.90
55648;DHT22;45266;48.756;9.246;2022-09-17T00:06:10;9.70;99.90
55648;DHT22;45266;48.756;9.246;2022-09-17T00:07:13;9.70;99.90
55648;DHT22;45266;48.756;9.246;2022-09-17T00:08:15;9.80;99.90
55648;DHT22;45266;48.756;9.246;2022-09-17T00:09:17;9.80;99.90
55648;DHT22;45266;48.756;9.246;2022-09-17T00:10:19;9.80;99.90
55648;DHT22;45266;48.756;9.246;2022-09-17T00:11:25;9.80;99.90
55648;DHT22;45266;48.756;9.246;2022-09-17T00:12:27;9.80;99.90
55648;DHT22;45266;48.756;9.246;2022-09-17T00:13:29;9.80;99.90
55648;DHT22;45266;48.756;9.246;2022-09-17T00:14:31;9.80;99.90
55648;DHT22;45266;48.756;9.246;2022-09-17T00:15:42;9.80;99.90
55648;DHT22;45266;48.756;9.246;2022-09-17T00:16:45;9.80;99.90
55648;DHT22;45266;48.756;9.246;2022-09-17T00:17:53;9.80;99.90
55648;DHT22;45266;48.756;9.246;2022-09-17T00:18:56;9.80;99.90
55648;DHT22;45266;48.756;9.246;2022-09-17T00:19:58;9.80;99.90
55648;DHT22;45266;48.756;9.246;2022-09-17T00:20:59;9.80;99.90
55648;DHT22;45266;48.756;9.246;2022-09-17T00:22:01;9.80;99.90
55648;DHT22;45266;48.756;9.246;2022-09-17T00:23:03;9.80;99.90
55648;DHT22;45266;48.756;9.246;2022-09-17T00:24:05;9.80;99.90
55648;DHT22;45266;48.756;9.246;2022-09-17T00:25:07;9.80;99.90
55648;DHT22;45266;48.756;9.246;2022-09-17T00:26:09;9.80;99.90
55648;DHT22;45266;48.756;9.246;2022-09-17T00:27:11;9.80;99.90
55648;DHT22;45266;48.756;9.246;2022-09-17T00:28:13;9.80;99.90
55648;DHT22;45266;48.756;9.246;2022-09-17T00:29:15;9.80;99.90
55648;DHT22;45266;48.756;9.246;2022-09-17T00:30:17;9.80;99.90
55648;DHT22;45266;48.756;9.246;2022-09-17T00:31:19;9.80;99.90
55648;DHT22;45266;48.756;9.246;2022-09-17T00:32:21;9.80;99.90
55648;DHT22;45266;48.756;9.246;2022-09-17T00:33:24;9.70;99.90
55648;DHT22;45266;48.756;9.246;2022-09-17T00:34:26;9.80;99.90
55648;DHT22;45266;48.756;9.246;2022-09-17T00:35:28;9.80;99.90
55648;DHT22;45266;48.756;9.246;2022-09-17T00:36:33;9.70;99.90
55648;DHT22;45266;48.756;9.246;2022-09-17T00:37:34;9.70;99.90
55648;DHT22;45266;48.756;9.246;2022-09-17T00:38:36;9.70;99.90
55648;DHT22;45266;48.756;9.246;2022-09-17T00:39:38;9.70;99.90
55648;DHT22;45266;48.756;9.246;2022-09-17T00:40:40;9.70;99.90
55648;DHT22;45266;48.756;9.246;2022-09-17T00:41:42;9.70;99.90
55648;DHT22;45266;48.756;9.246;2022-09-17T00:42:44;9.70;99.90
55648;DHT22;45266;48.756;9.246;2022-09-17T00:43:52;9.70;99.90
55648;DHT22;45266;48.756;9.246;2022-09-17T00:44:55;9.70;99.90
55648;DHT22;45266;48.756;9.246;2022-09-17T00:45:58;9.70;99.90
55648;DHT22;45266;48.756;9.246;2022-09-17T00:46:59;9.70;99.90
55648;DHT22;45266;48.756;9.246;2022-09-17T00:48:04;9.70;99.90
55648;DHT22;45266;48.756;9.246;2022-09-17T00:49:19;9.70;99.90
55648;DHT22;45266;48.756;9.246;2022-09-17T00:50:35;9.70;99.90
55648;DHT22;45266;48.756;9.246;2022-09-17T00:51:43;9.70;99.90
55648;DHT22;45266;48.756;9.246;2022-09-17T00:53:09;9.70;99.90
55648;DHT22;45266;48.756;9.246;2022-09-17T00:54:11;9.70;99.90
55648;DHT22;45266;48.756;9.246;2022-09-17T00:55:27;9.60;99.90
55648;DHT22;45266;48.756;9.246;2022-09-17T00:56:33;9.70;99.90
55648;DHT22;45266;48.756;9.246;2022-09-17T00:57:35;9.70;99.90
55648;DHT22;45266;48.756;9.246;2022-09-17T00:58:37;9.70;99.90
55648;DHT22;45266;48.756;9.246;2022-09-17T00:59:42;9.70;99.90
55648;DHT22;45266;48.756;9.246;2022-09-17T01:00:43;9.70;99.90
55648;DHT22;45266;48.756;9.246;2022-09-17T01:01:47;9.70;99.90
55648;DHT22;45266;48.756;9.246;2022-09-17T01:02:51;9.70;99.90
55648;DHT22;45266;48.756;9.246;2022-09-17T01:03:53;9.70;99.90
55648;DHT22;45266;48.756;9.246;2022-09-17T01:04:55;9.70;99.90
55648;DHT22;45266;48.756;9.246;2022-09-17T01:08:00;9.70;99.90
55648;DHT22;45266;48.756;9.246;2022-09-17T01:10:15;9.60;99.90
55648;DHT22;45266;48.756;9.246;2022-09-17T01:12:41;9.60;99.90
55648;DHT22;45266;48.756;9.246;2022-09-17T01:16:45;9.50;99.90
55648;DHT22;45266;48.756;9.246;2022-09-17T01:25:57;9.30;99.90
55648;DHT22;45266;48.756;9.246;2022-09-17T01:28:40;9.30;99.90
55648;DHT22;45266;48.756;9.246;2022-09-17T01:31:46;9.20;99.90
55648;DHT22;45266;48.756;9.246;2022-09-17T01:36:55;9.20;99.90
55648;DHT22;45266;48.756;9.246;2022-09-17T01:39:16;9.20;99.90
55648;DHT22;45266;48.756;9.246;2022-09-17T01:40:25;9.10;99.90
55648;DHT22;45266;48.756;9.246;2022-09-17T01:41:50;9.10;99.90
55648;DHT22;45266;48.756;9.246;2022-09-17T01:43:10;9.10;99.90
55648;DHT22;45266;48.756;9.246;2022-09-17T01:44:36;9.10;99.90
55648;DHT22;45266;48.756;9.246;2022-09-17T01:45:46;9.00;99.90
55648;DHT22;45266;48.756;9.246;2022-09-17T01:46:53;9.00;99.90
55648;DHT22;45266;48.756;9.246;2022-09-17T01:48:09;9.00;99.90
55648;DHT22;45266;48.756;9.246;2022-09-17T01:49:14;9.00;99.90
55648;DHT22;45266;48.756;9.246;2022-09-17T01:50:22;9.00;99.90
55648;DHT22;45266;48.756;9.246;2022-09-17T01:51:29;9.00;99.90
55648;DHT22;45266;48.756;9.246;2022-09-17T01:52:35;9.00;99.90
55648;DHT22;45266;48.756;9.246;2022-09-17T01:54:09;9.00;99.90
55648;DHT22;45266;48.756;9.246;2022-09-17T01:55:14;9.10;99.90
55648;DHT22;45266;48.756;9.246;2022-09-17T01:56:20;9.10;99.90
55648;DHT22;45266;48.756;9.246;2022-09-17T01:59:25;9.10;99.90
55648;DHT22;45266;48.756;9.246;2022-09-17T02:00:28;9.10;99.90
55648;DHT22;45266;48.756;9.246;2022-09-17T02:01:31;9.10;99.90
55648;DHT22;45266;48.756;9.246;2022-09-17T02:02:59;9.10;99.90
55648;DHT22;45266;48.756;9.246;2022-09-17T02:04:47;9.10;99.90
55648;DHT22;45266;48.756;9.246;2022-09-17T02:05:42;9.10;99.90
55648;DHT22;45266;48.756;9.246;2022-09-17T02:06:52;9.10;99.90
55648;DHT22;45266;48.756;9.246;2022-09-17T02:08:09;9.10;99.90
55648;DHT22;45266;48.756;9.246;2022-09-17T02:09:13;9.10;99.90
55648;DHT22;45266;48.756;9.246;2022-09-17T02:10:29;9.10;99.90
55648;DHT22;45266;48.756;9.246;2022-09-17T02:11:36;9.10;99.90
55648;DHT22;45266;48.756;9.246;2022-09-17T02:12:43;9.20;99.90
55648;DHT22;45266;48.756;9.246;2022-09-17T02:13:48;9.20;99.90
55648;DHT22;45266;48.756;9.246;2022-09-17T02:14:56;9.20;99.90
55648;DHT22;45266;48.756;9.246;2022-09-17T02:16:07;9.20;99.90
55648;DHT22;45266;48.756;9.246;2022-09-17T02:18:38;9.20;99.90
55648;DHT22;45266;48.756;9.246;2022-09-17T02:19:44;9.20;99.90
55648;DHT22;45266;48.756;9.246;2022-09-17T02:20:52;9.20;99.90
55648;DHT22;45266;48.756;9.246;2022-09-17T02:23:15;9.20;99.90
55648;DHT22;45266;48.756;9.246;2022-09-17T02:24:22;9.20;99.90
55648;DHT22;45266;48.756;9.246;2022-09-17T02:25:32;9.20;99.90
55648;DHT22;45266;48.756;9.246;2022-09-17T02:26:39;9.20;99.90
55648;DHT22;45266;48.756;9.246;2022-09-17T02:28:04;9.20;99.90
55648;DHT22;45266;48.756;9.246;2022-09-17T02:29:13;9.30;99.90
55648;DHT22;45266;48.756;9.246;2022-09-17T02:30:18;9.20;99.90
55648;DHT22;45266;48.756;9.246;2022-09-17T02:31:20;9.30;99.90
55648;DHT22;45266;48.756;9.246;2022-09-17T02:32:21;9.30;99.90
55648;DHT22;45266;48.756;9.246;2022-09-17T02:33:25;9.30;99.90
55648;DHT22;45266;48.756;9.246;2022-09-17T02:34:28;9.20;99.90
55648;DHT22;45266;48.756;9.246;2022-09-17T02:35:30;9.20;99.90
55648;DHT22;45266;48.756;9.246;2022-09-17T02:36:32;9.20;99.90
55648;DHT22;45266;48.756;9.246;2022-09-17T02:37:35;9.20;99.90
55648;DHT22;45266;48.756;9.246;2022-09-17T02:38:37;9.20;99.90
55648;DHT22;45266;48.756;9.246;2022-09-17T02:39:42;9.20;99.90
55648;DHT22;45266;48.756;9.246;2022-09-17T02:40:48;9.30;99.90
55648;DHT22;45266;48.756;9.246;2022-09-17T02:42:02;9.20;99.90
55648;DHT22;45266;48.756;9.246;2022-09-17T02:43:10;9.10;99.90
55648;DHT22;45266;48.756;9.246;2022-09-17T02:45:47;9.10;99.90
55648;DHT22;45266;48.756;9.246;2022-09-17T02:49:19;9.20;99.90
55648;DHT22;45266;48.756;9.246;2022-09-17T02:55:00;9.20;99.90
55648;DHT22;45266;48.756;9.246;2022-09-17T02:57:30;9.30;99.90
55648;DHT22;45266;48.756;9.246;2022-09-17T02:58:51;9.20;99.90
55648;DHT22;45266;48.756;9.246;2022-09-17T03:00:17;9.20;99.90
55648;DHT22;45266;48.756;9.246;2022-09-17T03:01:33;9.30;99.90
55648;DHT22;45266;48.756;9.246;2022-09-17T03:02:46;9.30;99.90
55648;DHT22;45266;48.756;9.246;2022-09-17T03:03:50;9.30;99.90
55648;DHT22;45266;48.756;9.246;2022-09-17T03:04:54;9.30;99.90
55648;DHT22;45266;48.756;9.246;2022-09-17T03:05:56;9.30;99.90
55648;DHT22;45266;48.756;9.246;2022-09-17T03:06:59;9.30;99.90
55648;DHT22;45266;48.756;9.246;2022-09-17T03:08:08;9.30;99.90
55648;DHT22;45266;48.756;9.246;2022-09-17T03:09:14;9.30;99.90
55648;DHT22;45266;48.756;9.246;2022-09-17T03:10:16;9.30;99.90
55648;DHT22;45266;48.756;9.246;2022-09-17T03:11:18;9.30;99.90
55648;DHT22;45266;48.756;9.246;2022-09-17T03:12:19;9.30;99.90
55648;DHT22;45266;48.756;9.246;2022-09-17T03:13:23;9.20;99.90
55648;DHT22;45266;48.756;9.246;2022-09-17T03:14:25;9.20;99.90
55648;DHT22;45266;48.756;9.246;2022-09-17T03:15:27;9.20;99.90
55648;DHT22;45266;48.756;9.246;2022-09-17T03:16:29;9.20;99.90
55648;DHT22;45266;48.756;9.246;2022-09-17T03:17:30;9.20;99.90
55648;DHT22;45266;48.756;9.246;2022-09-17T03:18:32;9.10;99.90
55648;DHT22;45266;48.756;9.246;2022-09-17T03:19:34;9.10;99.90
55648;DHT22;45266;48.756;9.246;2022-09-17T03:20:36;9.10;99.90
55648;DHT22;45266;48.756;9.246;2022-09-17T03:21:37;9.10;99.90
55648;DHT22;45266;48.756;9.246;2022-09-17T03:22:39;9.00;99.90
55648;DHT22;45266;48.756;9.246;2022-09-17T03:23:41;9.10;99.90
55648;DHT22;45266;48.756;9.246;2022-09-17T03:24:43;9.00;99.90
55648;DHT22;45266;48.756;9.246;2022-09-17T03:25:45;9.10;99.90
55648;DHT22;45266;48.756;9.246;2022-09-17T03:26:47;9.10;99.90
55648;DHT22;45266;48.756;9.246;2022-09-17T03:27:49;9.20;99.90
55648;DHT22;45266;48.756;9.246;2022-09-17T03:28:52;9.00;99.90
55648;DHT22;45266;48.756;9.246;2022-09-17T03:29:54;9.00;99.90
55648;DHT22;45266;48.756;9.246;2022-09-17T03:30:56;9.00;99.90
55648;DHT22;45266;48.756;9.246;2022-09-17T03:31:58;9.00;99.90
55648;DHT22;45266;48.756;9.246;2022-09-17T03:33:01;9.00;99.90
55648;DHT22;45266;48.756;9.246;2022-09-17T03:34:03;8.90;99.90
55648;DHT22;45266;48.756;9.246;2022-09-17T03:35:05;8.90;99.90
55648;DHT22;45266;48.756;9.246;2022-09-17T03:36:07;8.90;99.90
55648;DHT22;45266;48.756;9.246;2022-09-17T03:37:09;8.90;99.90
55648;DHT22;45266;48.756;9.246;2022-09-17T03:38:11;8.90;99.90
55648;DHT22;45266;48.756;9.246;2022-09-17T03:39:16;8.80;99.90
55648;DHT22;45266;48.756;9.246;2022-09-17T03:40:18;8.80;99.90
55648;DHT22;45266;48.756;9.246;2022-09-17T03:41:20;8.80;99.90
55648;DHT22;45266;48.756;9.246;2022-09-17T03:42:22;8.80;99.90
55648;DHT22;45266;48.756;9.246;2022-09-17T03:43:24;8.90;99.90
55648;DHT22;45266;48.756;9.246;2022-09-17T03:44:26;8.90;99.90
55648;DHT22;45266;48.756;9.246;2022-09-17T03:45:28;8.90;99.90
55648;DHT22;45266;48.756;9.246;2022-09-17T03:46:29;8.90;99.90
55648;DHT22;45266;48.756;9.246;2022-09-17T03:47:31;8.90;99.90
55648;DHT22;45266;48.756;9.246;2022-09-17T03:48:33;8.90;99.90
55648;DHT22;45266;48.756;9.246;2022-09-17T03:49:37;8.90;99.90
55648;DHT22;45266;48.756;9.246;2022-09-17T03:50:39;8.90;99.90
55648;DHT22;45266;48.756;9.246;2022-09-17T03:51:41;8.90;99.90
55648;DHT22;45266;48.756;9.246;2022-09-17T03:52:43;8.90;99.90
55648;DHT22;45266;48.756;9.246;2022-09-17T03:53:45;8.90;99.90
55648;DHT22;45266;48.756;9.246;2022-09-17T03:54:48;8.90;99.90
55648;DHT22;45266;48.756;9.246;2022-09-17T03:55:50;8.90;99.90
55648;DHT22;45266;48.756;9.246;2022-09-17T03:56:51;8.90;99.90
55648;DHT22;45266;48.756;9.246;2022-09-17T03:57:53;8.90;99.90
55648;DHT22;45266;48.756;9.246;2022-09-17T03:59:00;8.90;99.90
55648;DHT22;45266;48.756;9.246;2022-09-17T04:00:04;8.90;99.90
55648;DHT22;45266;48.756;9.246;2022-09-17T04:01:06;8.90;99.90
55648;DHT22;45266;48.756;9.246;2022-09-17T04:02:08;8.90;99.90
55648;DHT22;45266;48.756;9.246;2022-09-17T04:03:10;8.90;99.90
55648;DHT22;45266;48.756;9.246;2022-09-17T04:04:12;8.90;99.90
55648;DHT22;45266;48.756;9.246;2022-09-17T04:05:13;8.90;99.90
55648;DHT22;45266;48.756;9.246;2022-09-17T04:06:15;8.90;99.90
55648;DHT22;45266;48.756;9.246;2022-09-17T04:07:17;8.90;99.90
55648;DHT22;45266;48.756;9.246;2022-09-17T04:08:19;8.80;99.90
55648;DHT22;45266;48.756;9.246;2022-09-17T04:09:21;8.90;99.90
55648;DHT22;45266;48.756;9.246;2022-09-17T04:10:22;8.80;99.90
55648;DHT22;45266;48.756;9.246;2022-09-17T04:11:24;8.80;99.90
55648;DHT22;45266;48.756;9.246;2022-09-17T04:12:26;9.00;99.90
55648;DHT22;45266;48.756;9.246;2022-09-17T04:13:28;8.80;99.90
55648;DHT22;45266;48.756;9.246;2022-09-17T04:14:29;8.80;99.90
55648;DHT22;45266;48.756;9.246;2022-09-17T04:15:32;8.80;99.90
55648;DHT22;45266;48.756;9.246;2022-09-17T04:16:34;8.80;99.90
55648;DHT22;45266;48.756;9.246;2022-09-17T04:17:36;8.80;99.90
55648;DHT22;45266;48.756;9.246;2022-09-17T04:18:37;8.70;99.90
55648;DHT22;45266;48.756;9.246;2022-09-17T04:19:39;8.70;99.90
55648;DHT22;45266;48.756;9.246;2022-09-17T04:20:41;8.70;99.90
55648;DHT22;45266;48.756;9.246;2022-09-17T04:21:43;8.70;99.90
55648;DHT22;45266;48.756;9.246;2022-09-17T04:22:45;8.70;99.90
55648;DHT22;45266;48.756;9.246;2022-09-17T04:23:47;8.70;99.90
55648;DHT22;45266;48.756;9.246;2022-09-17T04:24:48;8.70;99.90
55648;DHT22;45266;48.756;9.246;2022-09-17T04:25:50;8.70;99.90
55648;DHT22;45266;48.756;9.246;2022-09-17T04:26:52;8.70;99.90
55648;DHT22;45266;48.756;9.246;2022-09-17T04:27:53;8.70;99.90
55648;DHT22;45266;48.756;9.246;2022-09-17T04:28:55;8.70;99.90
55648;DHT22;45266;48.756;9.246;2022-09-17T04:29:57;8.70;99.90
55648;DHT22;45266;48.756;9.246;2022-09-17T04:30:59;8.70;99.90
55648;DHT22;45266;48.756;9.246;2022-09-17T04:32:01;8.70;99.90
55648;DHT22;45266;48.756;9.246;2022-09-17T04:33:03;8.70;99.90
55648;DHT22;45266;48.756;9.246;2022-09-17T04:34:05;8.70;99.90
55648;DHT22;45266;48.756;9.246;2022-09-17T04:35:07;8.70;99.90
55648;DHT22;45266;48.756;9.246;2022-09-17T04:36:09;8.70;99.90
55648;DHT22;45266;48.756;9.246;2022-09-17T04:37:10;8.70;99.90
55648;DHT22;45266;48.756;9.246;2022-09-17T04:38:12;8.60;99.90
55648;DHT22;45266;48.756;9.246;2022-09-17T04:39:18;8.60;99.90
55648;DHT22;45266;48.756;9.246;2022-09-17T04:40:21;8.60;99.90
55648;DHT22;45266;48.756;9.246;2022-09-17T04:41:23;8.60;99.90
55648;DHT22;45266;48.756;9.246;2022-09-17T04:42:24;8.60;99.90
55648;DHT22;45266;48.756;9.246;2022-09-17T04:43:26;8.60;99.90
55648;DHT22;45266;48.756;9.246;2022-09-17T04:44:28;8.60;99.90
55648;DHT22;45266;48.756;9.246;2022-09-17T04:45:30;8.70;99.90
55648;DHT22;45266;48.756;9.246;2022-09-17T04:46:34;8.60;99.90
55648;DHT22;45266;48.756;9.246;2022-09-17T04:47:39;8.60;99.90
55648;DHT22;45266;48.756;9.246;2022-09-17T04:48:41;8.70;99.90
55648;DHT22;45266;48.756;9.246;2022-09-17T04:49:43;8.70;99.90
55648;DHT22;45266;48.756;9.246;2022-09-17T04:50:44;8.70;99.90
55648;DHT22;45266;48.756;9.246;2022-09-17T04:51:46;8.70;99.90
55648;DHT22;45266;48.756;9.246;2022-09-17T04:52:48;8.80;99.90
55648;DHT22;45266;48.756;9.246;2022-09-17T04:53:50;8.80;99.90
55648;DHT22;45266;48.756;9.246;2022-09-17T04:54:51;8.80;99.90
55648;DHT22;45266;48.756;9.246;2022-09-17T04:55:53;8.80;99.90
55648;DHT22;45266;48.756;9.246;2022-09-17T04:56:55;8.80;99.90
55648;DHT22;45266;48.756;9.246;2022-09-17T04:57:57;8.80;99.90
55648;DHT22;45266;48.756;9.246;2022-09-17T04:58:58;8.90;99.90
55648;DHT22;45266;48.756;9.246;2022-09-17T05:00:00;8.90;99.90
55648;DHT22;45266;48.756;9.246;2022-09-17T05:01:02;8.90;99.90
55648;DHT22;45266;48.756;9.246;2022-09-17T05:02:04;8.90;99.90
55648;DHT22;45266;48.756;9.246;2022-09-17T05:03:06;8.90;99.90
55648;DHT22;45266;48.756;9.246;2022-09-17T05:04:09;8.90;99.90
55648;DHT22;45266;48.756;9.246;2022-09-17T05:05:10;8.90;99.90
55648;DHT22;45266;48.756;9.246;2022-09-17T05:06:12;9.00;99.90
55648;DHT22;45266;48.756;9.246;2022-09-17T05:07:14;9.00;99.90
55648;DHT22;45266;48.756;9.246;2022-09-17T05:08:16;9.00;99.90
55648;DHT22;45266;48.756;9.246;2022-09-17T05:09:17;9.00;99.90
55648;DHT22;45266;48.756;9.246;2022-09-17T05:10:21;9.00;99.90
55648;DHT22;45266;48.756;9.246;2022-09-17T05:11:23;9.00;99.90
55648;DHT22;45266;48.756;9.246;2022-09-17T05:12:25;9.00;99.90
55648;DHT22;45266;48.756;9.246;2022-09-17T05:13:26;9.00;99.90
55648;DHT22;45266;48.756;9.246;2022-09-17T05:14:28;9.00;99.90
55648;DHT22;45266;48.756;9.246;2022-09-17T05:15:30;9.10;99.90
55648;DHT22;45266;48.756;9.246;2022-09-17T05:16:32;9.10;99.90
55648;DHT22;45266;48.756;9.246;2022-09-17T05:17:34;9.10;99.90
55648;DHT22;45266;48.756;9.246;2022-09-17T05:18:35;9.00;99.90
55648;DHT22;45266;48.756;9.246;2022-09-17T05:19:37;9.10;99.90
55648;DHT22;45266;48.756;9.246;2022-09-17T05:20:39;9.10;99.90
55648;DHT22;45266;48.756;9.246;2022-09-17T05:21:40;9.10;99.90
55648;DHT22;45266;48.756;9.246;2022-09-17T05:22:47;9.10;99.90
55648;DHT22;45266;48.756;9.246;2022-09-17T05:23:49;9.10;99.90
55648;DHT22;45266;48.756;9.246;2022-09-17T05:24:51;9.10;99.90
55648;DHT22;45266;48.756;9.246;2022-09-17T05:25:57;9.10;99.90
55648;DHT22;45266;48.756;9.246;2022-09-17T05:26:59;9.10;99.90
55648;DHT22;45266;48.756;9.246;2022-09-17T05:28:01;9.10;99.90
55648;DHT22;45266;48.756;9.246;2022-09-17T05:29:03;9.10;99.90
55648;DHT22;45266;48.756;9.246;2022-09-17T05:30:06;9.10;99.90
55648;DHT22;45266;48.756;9.246;2022-09-17T05:31:08;9.00;99.90
55648;DHT22;45266;48.756;9.246;2022-09-17T05:32:10;9.10;99.90
55648;DHT22;45266;48.756;9.246;2022-09-17T05:33:12;9.10;99.90
55648;DHT22;45266;48.756;9.246;2022-09-17T05:34:14;9.00;99.90
55648;DHT22;45266;48.756;9.246;2022-09-17T05:35:16;9.00;99.90
55648;DHT22;45266;48.756;9.246;2022-09-17T05:36:18;9.00;99.90
55648;DHT22;45266;48.756;9.246;2022-09-17T05:37:19;9.00;99.90
55648;DHT22;45266;48.756;9.246;2022-09-17T05:38:21;9.00;99.90
55648;DHT22;45266;48.756;9.246;2022-09-17T05:39:23;9.00;99.90
55648;DHT22;45266;48.756;9.246;2022-09-17T05:40:29;9.00;99.90
55648;DHT22;45266;48.756;9.246;2022-09-17T05:41:31;9.00;99.90
55648;DHT22;45266;48.756;9.246;2022-09-17T05:42:34;9.00;99.90
55648;DHT22;45266;48.756;9.246;2022-09-17T05:43:36;8.90;99.90
55648;DHT22;45266;48.756;9.246;2022-09-17T05:44:37;8.90;99.90
55648;DHT22;45266;48.756;9.246;2022-09-17T05:45:39;8.90;99.90
55648;DHT22;45266;48.756;9.246;2022-09-17T05:46:41;8.80;99.90
55648;DHT22;45266;48.756;9.246;2022-09-17T05:47:43;8.90;99.90
55648;DHT22;45266;48.756;9.246;2022-09-17T05:48:45;8.90;99.90
55648;DHT22;45266;48.756;9.246;2022-09-17T05:49:46;8.90;99.90
55648;DHT22;45266;48.756;9.246;2022-09-17T05:50:48;8.90;99.90
55648;DHT22;45266;48.756;9.246;2022-09-17T05:51:50;8.90;99.90
55648;DHT22;45266;48.756;9.246;2022-09-17T05:52:53;8.90;99.90
55648;DHT22;45266;48.756;9.246;2022-09-17T05:53:55;8.90;99.90
55648;DHT22;45266;48.756;9.246;2022-09-17T05:54:56;8.90;99.90
55648;DHT22;45266;48.756;9.246;2022-09-17T05:55:58;9.00;99.90
55648;DHT22;45266;48.756;9.246;2022-09-17T05:57:00;8.90;99.90
55648;DHT22;45266;48.756;9.246;2022-09-17T05:58:13;9.00;99.90
55648;DHT22;45266;48.756;9.246;2022-09-17T05:59:15;8.90;99.90
55648;DHT22;45266;48.756;9.246;2022-09-17T06:00:17;9.00;99.90
55648;DHT22;45266;48.756;9.246;2022-09-17T06:01:19;9.00;99.90
55648;DHT22;45266;48.756;9.246;2022-09-17T06:02:21;9.00;99.90
55648;DHT22;45266;48.756;9.246;2022-09-17T06:03:23;9.00;99.90
55648;DHT22;45266;48.756;9.246;2022-09-17T06:04:24;9.00;99.90
55648;DHT22;45266;48.756;9.246;2022-09-17T06:05:27;9.10;99.90
55648;DHT22;45266;48.756;9.246;2022-09-17T06:06:29;9.10;99.90
55648;DHT22;45266;48.756;9.246;2022-09-17T06:07:37;9.10;99.90
55648;DHT22;45266;48.756;9.246;2022-09-17T06:08:39;9.10;99.90
55648;DHT22;45266;48.756;9.246;2022-09-17T06:09:40;9.20;99.90
55648;DHT22;45266;48.756;9.246;2022-09-17T06:10:42;9.20;99.90
55648;DHT22;45266;48.756;9.246;2022-09-17T06:11:44;9.30;99.90
55648;DHT22;45266;48.756;9.246;2022-09-17T06:12:45;9.30;99.90
55648;DHT22;45266;48.756;9.246;2022-09-17T06:13:51;9.40;99.90
55648;DHT22;45266;48.756;9.246;2022-09-17T06:14:53;9.40;99.90
55648;DHT22;45266;48.756;9.246;2022-09-17T06:15:55;9.50;99.90
55648;DHT22;45266;48.756;9.246;2022-09-17T06:16:57;9.50;99.90
55648;DHT22;45266;48.756;9.246;2022-09-17T06:17:59;9.50;99.90
55648;DHT22;45266;48.756;9.246;2022-09-17T06:19:00;9.50;99.90
55648;DHT22;45266;48.756;9.246;2022-09-17T06:20:04;9.50;99.90
55648;DHT22;45266;48.756;9.246;2022-09-17T06:21:06;9.60;99.90
55648;DHT22;45266;48.756;9.246;2022-09-17T06:22:08;9.60;99.90
55648;DHT22;45266;48.756;9.246;2022-09-17T06:23:10;9.60;99.90
55648;DHT22;45266;48.756;9.246;2022-09-17T06:24:16;9.60;99.90
55648;DHT22;45266;48.756;9.246;2022-09-17T06:25:18;9.60;99.90
55648;DHT22;45266;48.756;9.246;2022-09-17T06:26:19;9.70;99.90
55648;DHT22;45266;48.756;9.246;2022-09-17T06:27:21;9.70;99.90
55648;DHT22;45266;48.756;9.246;2022-09-17T06:28:24;9.70;99.90
55648;DHT22;45266;48.756;9.246;2022-09-17T06:29:26;9.80;99.90
55648;DHT22;45266;48.756;9.246;2022-09-17T06:30:28;9.80;99.90
55648;DHT22;45266;48.756;9.246;2022-09-17T06:31:30;9.70;99.90
55648;DHT22;45266;48.756;9.246;2022-09-17T06:32:32;9.80;99.90
55648;DHT22;45266;48.756;9.246;2022-09-17T06:33:34;9.80;99.90
55648;DHT22;45266;48.756;9.246;2022-09-17T06:34:37;9.80;99.90
55648;DHT22;45266;48.756;9.246;2022-09-17T06:35:39;9.90;99.90
55648;DHT22;45266;48.756;9.246;2022-09-17T06:36:40;9.90;99.90
55648;DHT22;45266;48.756;9.246;2022-09-17T06:37:42;9.90;99.90
55648;DHT22;45266;48.756;9.246;2022-09-17T06:38:44;9.90;99.90
55648;DHT22;45266;48.756;9.246;2022-09-17T06:39:46;9.90;99.90
55648;DHT22;45266;48.756;9.246;2022-09-17T06:40:51;9.90;99.90
55648;DHT22;45266;48.756;9.246;2022-09-17T06:41:53;9.90;99.90
55648;DHT22;45266;48.756;9.246;2022-09-17T06:42:58;10.00;99.90
55648;DHT22;45266;48.756;9.246;2022-09-17T06:44:00;10.00;99.90
55648;DHT22;45266;48.756;9.246;2022-09-17T06:45:02;10.00;99.90
55648;DHT22;45266;48.756;9.246;2022-09-17T06:46:10;10.00;99.90
55648;DHT22;45266;48.756;9.246;2022-09-17T06:47:12;10.00;99.90
55648;DHT22;45266;48.756;9.246;2022-09-17T06:48:13;10.00;99.90
55648;DHT22;45266;48.756;9.246;2022-09-17T06:49:16;10.10;99.90
55648;DHT22;45266;48.756;9.246;2022-09-17T06:50:18;10.10;99.90
55648;DHT22;45266;48.756;9.246;2022-09-17T06:51:20;10.10;99.90
55648;DHT22;45266;48.756;9.246;2022-09-17T06:52:23;10.10;99.90
55648;DHT22;45266;48.756;9.246;2022-09-17T06:53:24;10.10;99.90
55648;DHT22;45266;48.756;9.246;2022-09-17T06:54:26;10.10;99.90
55648;DHT22;45266;48.756;9.246;2022-09-17T06:55:28;10.10;99.90
55648;DHT22;45266;48.756;9.246;2022-09-17T06:56:30;10.10;99.90
55648;DHT22;45266;48.756;9.246;2022-09-17T06:57:33;10.20;99.90
55648;DHT22;45266;48.756;9.246;2022-09-17T06:58:36;10.20;99.90
55648;DHT22;45266;48.756;9.246;2022-09-17T06:59:38;10.20;99.90
55648;DHT22;45266;48.756;9.246;2022-09-17T07:00:40;10.20;99.90
55648;DHT22;45266;48.756;9.246;2022-09-17T07:01:42;10.20;99.90
55648;DHT22;45266;48.756;9.246;2022-09-17T07:02:54;10.20;99.90
55648;DHT22;45266;48.756;9.246;2022-09-17T07:03:56;10.30;99.90
55648;DHT22;45266;48.756;9.246;2022-09-17T07:04:58;10.30;99.90
55648;DHT22;45266;48.756;9.246;2022-09-17T07:06:00;10.30;99.90
55648;DHT22;45266;48.756;9.246;2022-09-17T07:07:02;10.30;99.90
55648;DHT22;45266;48.756;9.246;2022-09-17T07:08:05;10.30;99.90
55648;DHT22;45266;48.756;9.246;2022-09-17T07:09:07;10.30;99.90
55648;DHT22;45266;48.756;9.246;2022-09-17T07:10:11;10.30;99.90
55648;DHT22;45266;48.756;9.246;2022-09-17T07:11:13;10.30;99.90
55648;DHT22;45266;48.756;9.246;2022-09-17T07:12:16;10.30;99.90
55648;DHT22;45266;48.756;9.246;2022-09-17T07:13:18;10.30;99.90
55648;DHT22;45266;48.756;9.246;2022-09-17T07:14:19;10.30;99.90
55648;DHT22;45266;48.756;9.246;2022-09-17T07:15:22;10.30;99.90
55648;DHT22;45266;48.756;9.246;2022-09-17T07:16:24;10.30;99.90
55648;DHT22;45266;48.756;9.246;2022-09-17T07:17:28;10.30;99.90
55648;DHT22;45266;48.756;9.246;2022-09-17T07:18:30;10.30;99.90
55648;DHT22;45266;48.756;9.246;2022-09-17T07:19:32;10.30;99.90
55648;DHT22;45266;48.756;9.246;2022-09-17T07:20:33;10.20;99.90
55648;DHT22;45266;48.756;9.246;2022-09-17T07:21:36;10.20;99.90
55648;DHT22;45266;48.756;9.246;2022-09-17T07:22:38;10.20;99.90
55648;DHT22;45266;48.756;9.246;2022-09-17T07:23:39;10.20;99.90
55648;DHT22;45266;48.756;9.246;2022-09-17T07:24:41;10.20;99.90
55648;DHT22;45266;48.756;9.246;2022-09-17T07:25:43;10.20;99.90
55648;DHT22;45266;48.756;9.246;2022-09-17T07:26:45;10.20;99.90
55648;DHT22;45266;48.756;9.246;2022-09-17T07:27:46;10.20;99.90
55648;DHT22;45266;48.756;9.246;2022-09-17T07:28:48;10.10;99.90